Startpagina
METAR-TAF:

METAR-TAF

Vliegvelden :

Amman, Jordanië

breedte: 31-59N, lengte: 035-59E, hoogte: 767 m

Actueel weer

Dit bericht is 58 minuten geleden gemaakt, om 23:00 UTC
Wind 2 kt uit het zuidwesten
Temperatuur 9°C
Vochtigheid 76%
Druk 1016 hPa
Zicht: 3500 m
verspreid stof

METAR: OJAM 132300Z 22002KT 3500 DU NSC 09/05 Q1016 NOSIG

Tijdstip: 01:58 (23:58 UTC)

Verwachting

Dit bericht is 1 uur en het 12 minuten geleden gemaakt, om 22:46 UTC
Verwachting geldig van 14 om 00 UTC tot 15 om 06 UTC
Wind 6 kt uit het zuidwesten
Zicht: 4000 m
Weinig wolken op 3000 ft
verspreid stof
Kans 30% :
Tijdelijke
van 14 om 03 UTC tot 14 om 06 UTC
Zicht: 1500 m
nevel

TAF: OJAM 132246Z 1400/1506 23006KT 4000 DU FEW030 PROB30 TEMPO 1403/1406 1500 BR

Waarnemingen en weersverwachtingen van meer dan 4000 vliegvelden (METAR en TAF).

De beschikbare stations zijn de gele en rode punten op de kaart.

Ga met uw muis naar het station om de naam te zien.

Klik dan om waarnemingen en weersverwachtingen te zien.

kaart wijzigen: klik op de groene knoppen met een zwart kruis om in te zoomen, op de groene knop met een streepje om uit te zoomen of op de groene pijlen voor aangrenzende kaarten.


METAR-TAF: